createdAt,value
2023-07-03T00:01:27.425Z,100968.13
2023-07-03T00:03:54.664Z,100965.75
2023-07-03T00:06:21.856Z,100953.06
2023-07-03T00:08:49.069Z,100953.06
2023-07-03T00:11:16.347Z,100949.06
2023-07-03T00:13:43.391Z,100951.41
2023-07-03T00:16:10.593Z,100952.13
2023-07-03T00:18:37.710Z,100949.31
2023-07-03T00:21:05.200Z,100947.34
2023-07-03T00:23:32.305Z,100947.00
2023-07-03T00:25:59.420Z,100944.25
2023-07-03T00:28:27.059Z,100948.09
2023-07-03T00:30:54.136Z,100940.09
2023-07-03T00:33:21.341Z,100949.19
2023-07-03T00:35:48.944Z,100943.22
2023-07-03T00:38:16.439Z,100943.97
2023-07-03T00:40:43.562Z,100941.97
2023-07-03T00:43:13.010Z,100943.22
2023-07-03T00:45:40.273Z,100942.00
2023-07-03T00:48:07.386Z,100950.75
2023-07-03T00:50:36.120Z,100949.97
2023-07-03T00:53:05.663Z,100948.75
2023-07-03T00:55:33.295Z,100953.09
2023-07-03T00:58:00.631Z,100950.31
2023-07-03T01:00:34.973Z,100954.56
2023-07-03T01:03:16.400Z,100960.53
2023-07-03T01:05:48.627Z,100956.19
2023-07-03T01:08:16.532Z,100954.13
2023-07-03T01:10:45.134Z,100946.13
2023-07-03T01:13:17.803Z,100949.25
2023-07-03T01:15:46.560Z,100955.97
2023-07-03T01:18:16.262Z,100952.69
2023-07-03T01:20:51.104Z,100955.78
2023-07-03T01:24:07.284Z,100958.56
2023-07-03T01:26:35.763Z,100962.13
2023-07-03T01:29:04.052Z,100960.56
2023-07-03T01:31:33.128Z,100959.75
2023-07-03T01:34:02.408Z,100957.78
2023-07-03T01:36:34.778Z,100953.44
2023-07-03T01:39:04.091Z,100952.69
2023-07-03T01:41:32.189Z,100951.09
2023-07-03T01:43:59.404Z,100940.31
2023-07-03T01:46:26.497Z,100936.34
2023-07-03T01:48:54.038Z,100933.56
2023-07-03T01:51:40.187Z,100921.28
2023-07-03T01:54:21.286Z,100937.56
2023-07-03T01:56:52.029Z,100935.19
2023-07-03T01:59:26.306Z,100935.19
2023-07-03T02:02:07.173Z,100940.75
2023-07-03T02:04:40.734Z,100936.38
2023-07-03T02:07:10.756Z,100937.94
2023-07-03T02:09:41.103Z,100933.13
2023-07-03T02:12:11.220Z,100932.34
2023-07-03T02:14:40.684Z,100933.19
2023-07-03T02:17:09.383Z,100932.41
2023-07-03T02:19:37.231Z,100928.06
2023-07-03T02:22:05.124Z,100932.47
2023-07-03T02:24:32.858Z,100928.91
2023-07-03T02:27:00.796Z,100930.41
2023-07-03T02:29:27.993Z,100936.69
2023-07-03T02:31:55.058Z,100941.88
2023-07-03T02:34:24.906Z,100924.41
2023-07-03T02:36:52.042Z,100937.88
2023-07-03T02:39:19.200Z,100939.47
2023-07-03T02:41:46.362Z,100946.59
2023-07-03T02:44:13.600Z,100935.13
2023-07-03T02:46:43.340Z,100935.53
2023-07-03T02:49:12.276Z,100926.88
2023-07-03T02:51:42.573Z,100933.22
2023-07-03T02:54:11.316Z,100934.03
2023-07-03T02:56:39.743Z,100934.78
2023-07-03T02:59:07.165Z,100934.78
2023-07-03T03:01:37.601Z,100939.91
2023-07-03T03:04:06.859Z,100943.47
2023-07-03T03:06:34.609Z,100939.88
2023-07-03T03:09:02.226Z,100935.50
2023-07-03T03:11:32.381Z,100946.16
2023-07-03T03:13:59.947Z,100941.41
2023-07-03T03:16:27.750Z,100946.59
2023-07-03T03:18:55.023Z,100952.94
2023-07-03T03:21:22.571Z,100948.97
2023-07-03T03:23:49.959Z,100951.41
2023-07-03T03:26:17.199Z,100949.41
2023-07-03T03:28:44.240Z,100955.38
2023-07-03T03:31:11.433Z,100959.31
2023-07-03T03:33:47.010Z,100954.53
2023-07-03T03:36:14.301Z,100956.88
2023-07-03T03:38:41.870Z,100958.84
2023-07-03T03:41:09.511Z,100953.34
2023-07-03T03:43:40.027Z,100954.59
2023-07-03T03:46:07.338Z,100972.88
2023-07-03T03:48:37.168Z,100973.28
2023-07-03T03:51:07.407Z,100968.91
2023-07-03T03:53:35.738Z,100969.63
2023-07-03T03:56:02.883Z,100975.16
2023-07-03T03:58:32.889Z,100966.47
2023-07-03T04:01:00.201Z,100969.28
2023-07-03T04:03:27.420Z,100969.66
2023-07-03T04:05:54.837Z,100970.09
2023-07-03T04:08:22.163Z,100972.53
2023-07-03T04:10:49.236Z,100974.19
2023-07-03T04:13:16.345Z,100961.91
2023-07-03T04:16:00.692Z,100967.50
2023-07-03T04:18:29.379Z,100969.13
2023-07-03T04:20:56.546Z,100964.78
2023-07-03T04:23:25.705Z,100964.03
2023-07-03T04:25:54.062Z,100967.69
2023-07-03T04:28:24.718Z,100972.16
2023-07-03T04:30:51.919Z,100981.31
2023-07-03T04:33:19.136Z,100977.81
2023-07-03T04:35:48.285Z,100973.94
2023-07-03T04:38:19.580Z,100975.09
2023-07-03T04:40:47.418Z,100978.69
2023-07-03T04:43:17.338Z,100961.72
2023-07-03T04:45:53.906Z,100978.09
2023-07-03T04:48:22.047Z,100982.13
2023-07-03T04:50:50.296Z,100990.88
2023-07-03T04:53:22.549Z,100984.16
2023-07-03T04:55:51.702Z,100984.16
2023-07-03T04:58:19.985Z,100988.41
2023-07-03T05:00:48.498Z,100976.94
2023-07-03T05:03:16.020Z,100984.22
2023-07-03T05:05:43.255Z,100989.91
2023-07-03T05:08:11.282Z,100994.34
2023-07-03T05:10:38.367Z,100995.19
2023-07-03T05:13:05.461Z,101002.75
2023-07-03T05:15:32.796Z,101004.00
2023-07-03T05:18:00.345Z,101002.41
2023-07-03T05:20:27.642Z,101019.91
2023-07-03T05:22:56.758Z,101018.00
2023-07-03T05:25:24.000Z,101020.38
2023-07-03T05:27:51.256Z,101024.81
2023-07-03T05:30:18.587Z,101018.09
2023-07-03T05:32:45.823Z,101030.94
2023-07-03T05:35:13.255Z,101030.63
2023-07-03T05:37:40.352Z,101023.09
2023-07-03T05:40:08.597Z,101030.69
2023-07-03T05:42:37.531Z,101029.94
2023-07-03T05:45:05.927Z,101024.72
2023-07-03T05:47:33.069Z,101008.44
2023-07-03T05:50:00.443Z,101018.00
2023-07-03T05:52:27.644Z,101019.25
2023-07-03T05:54:54.794Z,101022.88
2023-07-03T05:57:22.196Z,101014.38
2023-07-03T05:59:50.388Z,101023.34
2023-07-03T06:02:18.979Z,101024.28
2023-07-03T06:04:47.107Z,101020.88
2023-07-03T06:07:14.468Z,101016.16
2023-07-03T06:09:42.756Z,101008.44
2023-07-03T06:12:10.125Z,101010.31
2023-07-03T06:14:37.365Z,101010.09
2023-07-03T06:17:04.745Z,101002.84
2023-07-03T06:19:32.074Z,101002.88
2023-07-03T06:21:59.381Z,101003.22
2023-07-03T06:24:26.855Z,101006.13
2023-07-03T06:26:54.138Z,101002.53
2023-07-03T06:29:21.511Z,101002.22
2023-07-03T06:31:49.048Z,100995.56
2023-07-03T06:34:16.401Z,100998.13
2023-07-03T06:36:43.676Z,100995.97
2023-07-03T06:39:11.351Z,100994.59
2023-07-03T06:41:40.612Z,101001.44
2023-07-03T06:44:12.637Z,101005.94
2023-07-03T06:46:40.187Z,101002.78
2023-07-03T06:49:07.304Z,100997.16
2023-07-03T06:51:34.651Z,100990.09
2023-07-03T06:54:01.898Z,100989.13
2023-07-03T06:56:29.877Z,100986.31
2023-07-03T06:58:57.138Z,100998.03
2023-07-03T07:01:26.583Z,100997.78
2023-07-03T07:03:53.736Z,100998.19
2023-07-03T07:06:26.428Z,100986.13
2023-07-03T07:08:53.936Z,100989.16
2023-07-03T07:11:27.224Z,100982.59
2023-07-03T07:13:56.732Z,100984.09
2023-07-03T07:16:27.432Z,100980.72
2023-07-03T07:18:57.418Z,100981.94
2023-07-03T07:21:25.337Z,100987.25
2023-07-03T07:23:57.682Z,100984.50
2023-07-03T07:26:29.214Z,100997.44
2023-07-03T07:28:56.280Z,100993.25
2023-07-03T07:31:25.933Z,101012.72
2023-07-03T07:33:53.469Z,101008.78
2023-07-03T07:36:22.838Z,101003.44
2023-07-03T07:38:51.382Z,100989.47
2023-07-03T07:41:20.933Z,100994.22
2023-07-03T07:43:49.419Z,100991.69
2023-07-03T07:46:17.133Z,100996.41
2023-07-03T07:48:46.797Z,101010.94
2023-07-03T07:51:14.184Z,101001.34
2023-07-03T07:53:41.986Z,101012.38
2023-07-03T07:56:10.384Z,101012.38
2023-07-03T07:58:38.080Z,101007.34
2023-07-03T08:01:06.967Z,101020.72
2023-07-03T08:06:36.567Z,101011.16
2023-07-03T08:09:03.873Z,101020.59
2023-07-03T08:11:31.060Z,101024.94
2023-07-03T08:13:58.156Z,101034.25
2023-07-03T08:16:25.344Z,101041.47
2023-07-03T08:18:52.652Z,101052.00
2023-07-03T08:21:19.960Z,101044.31
2023-07-03T08:23:47.156Z,101047.47
2023-07-03T08:26:20.499Z,101046.69
2023-07-03T08:28:47.782Z,101045.47
2023-07-03T08:31:14.978Z,101050.75
2023-07-03T08:33:42.299Z,101052.63
2023-07-03T08:38:39.932Z,101042.19
2023-07-03T08:41:10.680Z,101048.06
2023-07-03T08:43:42.426Z,101044.97
2023-07-03T08:46:13.569Z,101039.41
2023-07-03T08:48:43.254Z,101046.06
2023-07-03T08:51:16.331Z,101050.22
2023-07-03T08:53:49.201Z,101059.22
2023-07-03T08:56:21.716Z,101050.22
2023-07-03T08:58:53.049Z,101054.00
2023-07-03T09:01:37.074Z,101048.59
2023-07-03T09:04:26.586Z,101053.97
2023-07-03T09:07:03.982Z,101060.81
2023-07-03T09:09:43.043Z,101054.97
2023-07-03T09:12:17.222Z,101056.91
2023-07-03T09:14:52.205Z,101050.91
2023-07-03T09:17:20.438Z,101049.09
2023-07-03T09:19:50.387Z,101056.56
2023-07-03T09:22:35.638Z,101054.72
2023-07-03T09:25:06.421Z,101052.50
2023-07-03T09:27:33.448Z,101057.34
2023-07-03T09:30:06.154Z,101064.31
2023-07-03T09:32:34.508Z,101062.31
2023-07-03T09:35:09.975Z,101058.72
2023-07-03T09:37:42.657Z,101059.28
2023-07-03T09:40:16.367Z,101067.03
2023-07-03T09:42:44.035Z,101057.38
2023-07-03T09:45:23.787Z,101050.97
2023-07-03T09:47:59.816Z,101047.06
2023-07-03T09:50:36.119Z,101039.19
2023-07-03T09:53:09.193Z,101049.59
2023-07-03T09:55:37.681Z,101058.34
2023-07-03T09:58:27.350Z,101052.63
2023-07-03T10:00:56.971Z,101039.78
2023-07-03T10:03:33.096Z,101050.28
2023-07-03T10:11:55.601Z,101031.38
2023-07-03T10:14:35.481Z,101036.97
2023-07-03T10:17:05.048Z,101033.03
2023-07-03T10:19:36.009Z,101025.47
2023-07-03T10:22:03.436Z,101036.22
2023-07-03T10:24:33.428Z,101039.03
2023-07-03T10:27:02.263Z,101043.41
2023-07-03T10:29:38.928Z,101031.47
2023-07-03T10:32:19.350Z,101036.16
2023-07-03T10:34:54.545Z,101031.69
2023-07-03T10:37:24.356Z,101029.97
2023-07-03T10:40:01.485Z,101023.84
2023-07-03T10:42:35.692Z,101030.31
2023-07-03T10:45:16.007Z,101034.25
2023-07-03T10:48:04.520Z,101032.97
2023-07-03T10:50:45.360Z,101022.63
2023-07-03T10:53:23.271Z,101029.75
2023-07-03T10:56:03.289Z,101033.31
2023-07-03T10:58:33.516Z,101030.06
2023-07-03T11:01:22.476Z,101030.50
2023-07-03T11:04:23.723Z,101027.19
2023-07-03T11:07:06.354Z,101013.31
2023-07-03T11:09:47.392Z,101027.75
2023-07-03T11:12:23.921Z,101018.06
2023-07-03T11:15:09.542Z,101018.19
2023-07-03T11:23:55.453Z,101010.38
2023-07-03T11:29:08.392Z,101016.31
2023-07-03T11:31:40.605Z,101012.94
2023-07-03T11:36:56.401Z,101015.81
2023-07-03T11:44:48.529Z,101021.78
2023-07-03T11:47:29.061Z,101023.34
2023-07-03T11:50:01.769Z,101027.91
2023-07-03T11:52:30.137Z,101035.41
2023-07-03T11:55:07.957Z,101026.97
2023-07-03T11:57:38.709Z,101020.75
2023-07-03T12:00:19.828Z,101013.13
2023-07-03T12:02:54.949Z,101013.47
2023-07-03T12:05:44.053Z,101020.97
2023-07-03T12:08:43.570Z,101004.13
2023-07-03T12:11:14.182Z,101005.56
2023-07-03T12:13:47.897Z,101003.22
2023-07-03T12:16:18.013Z,101000.78
2023-07-03T12:18:45.336Z,100996.81
2023-07-03T12:21:13.612Z,100998.09
2023-07-03T12:23:49.043Z,100994.44
2023-07-03T12:26:18.397Z,100986.59
2023-07-03T12:28:46.551Z,100987.81
2023-07-03T12:31:16.837Z,101000.34
2023-07-03T12:34:13.362Z,101003.28
2023-07-03T12:36:44.705Z,100999.38
2023-07-03T12:39:16.148Z,100999.00
2023-07-03T12:41:43.550Z,101000.97
2023-07-03T12:44:12.159Z,101003.34
2023-07-03T12:46:42.285Z,101002.72
2023-07-03T12:49:21.410Z,101006.53
2023-07-03T12:51:54.701Z,101000.97
2023-07-03T12:54:24.005Z,100992.66
2023-07-03T12:56:53.495Z,100989.47
2023-07-03T12:59:24.333Z,100994.38
2023-07-03T13:01:54.510Z,100989.66
2023-07-03T13:04:34.156Z,100997.66
2023-07-03T13:07:04.001Z,100984.91
2023-07-03T13:09:33.025Z,100994.03
2023-07-03T13:12:00.261Z,100990.94
2023-07-03T13:14:29.442Z,100992.06
2023-07-03T13:17:02.476Z,101002.00
2023-07-03T13:19:36.083Z,100996.38
2023-07-03T13:22:11.140Z,100996.75
2023-07-03T13:24:46.409Z,100999.50
2023-07-03T13:27:25.647Z,100999.31
2023-07-03T13:29:59.219Z,100997.38
2023-07-03T13:32:26.791Z,101002.59
2023-07-03T13:35:01.424Z,101002.63
2023-07-03T13:37:32.585Z,101001.81
2023-07-03T13:40:03.029Z,101001.38
2023-07-03T13:42:31.662Z,100992.56
2023-07-03T13:44:59.136Z,101000.84
2023-07-03T13:47:28.998Z,100999.22
2023-07-03T13:49:57.198Z,101006.41
2023-07-03T13:52:24.490Z,100992.03
2023-07-03T13:54:51.579Z,100996.91
2023-07-03T13:57:18.672Z,100999.69
2023-07-03T13:59:45.831Z,101002.09
2023-07-03T14:02:12.958Z,100998.56
2023-07-03T14:04:40.453Z,101005.31
2023-07-03T14:07:07.565Z,101004.97
2023-07-03T14:09:34.947Z,101003.34
2023-07-03T14:12:02.086Z,101007.31
2023-07-03T14:14:29.349Z,101005.75
2023-07-03T14:16:56.516Z,101007.78
2023-07-03T14:19:23.636Z,101018.22
2023-07-03T14:21:51.606Z,101008.25
2023-07-03T14:24:18.741Z,101001.50
2023-07-03T14:26:46.047Z,101003.56
2023-07-03T14:29:13.163Z,101003.16
2023-07-03T14:31:40.524Z,101001.19
2023-07-03T14:34:07.984Z,101001.56
2023-07-03T14:36:35.084Z,101012.31
2023-07-03T14:39:02.342Z,101006.72
2023-07-03T14:41:29.516Z,101011.06
2023-07-03T14:43:56.634Z,101014.25
2023-07-03T14:46:23.872Z,101004.19
2023-07-03T14:48:51.251Z,101005.44
2023-07-03T14:51:18.647Z,101002.69
2023-07-03T14:53:45.808Z,101003.84
2023-07-03T14:56:13.175Z,101007.00
2023-07-03T14:58:40.298Z,101015.78
2023-07-03T15:01:07.567Z,101009.41
2023-07-03T15:03:34.965Z,101003.88
2023-07-03T15:06:07.457Z,101002.34
2023-07-03T15:08:34.537Z,101000.34
2023-07-03T15:11:01.612Z,101003.97
2023-07-03T15:13:28.764Z,100999.16
2023-07-03T15:15:56.215Z,101008.78
2023-07-03T15:18:24.905Z,101000.41
2023-07-03T15:20:52.099Z,100991.66
2023-07-03T15:23:19.716Z,100984.91
2023-07-03T15:25:46.753Z,100982.50
2023-07-03T15:28:14.184Z,100989.25
2023-07-03T15:30:42.544Z,100982.91
2023-07-03T15:33:09.824Z,100982.50
2023-07-03T15:35:37.096Z,100970.16
2023-07-03T15:38:04.298Z,100972.56
2023-07-03T15:40:31.572Z,100972.50
2023-07-03T15:42:58.712Z,100972.50
2023-07-03T15:45:26.575Z,100976.09
2023-07-03T15:47:54.302Z,100978.09
2023-07-03T15:50:21.614Z,100976.13
2023-07-03T15:52:49.402Z,100976.53
2023-07-03T15:55:18.977Z,100979.31
2023-07-03T15:57:46.196Z,100976.53
2023-07-03T16:00:14.088Z,100988.84
2023-07-03T16:02:41.362Z,100986.88
2023-07-03T16:05:09.207Z,100990.06
2023-07-03T16:07:36.959Z,100992.84
2023-07-03T16:10:05.052Z,100991.66
2023-07-03T16:12:32.109Z,100991.63
2023-07-03T16:14:59.367Z,100986.44
2023-07-03T16:17:26.658Z,100997.19
2023-07-03T16:20:09.725Z,101003.16
2023-07-03T16:22:38.404Z,101005.53
2023-07-03T16:25:07.841Z,101003.16
2023-07-03T16:27:36.055Z,101007.53
2023-07-03T16:30:03.369Z,101000.38
2023-07-03T16:32:31.108Z,101007.16
2023-07-03T16:34:58.254Z,101005.56
2023-07-03T16:37:25.498Z,100999.56
2023-07-03T16:39:52.713Z,100996.78
2023-07-03T16:42:20.096Z,101011.50
2023-07-03T16:44:47.389Z,101000.75
2023-07-03T16:47:14.661Z,101005.16
2023-07-03T16:49:41.787Z,101003.53
2023-07-03T16:52:08.932Z,100996.00
2023-07-03T16:54:36.198Z,100998.78
2023-07-03T16:57:04.222Z,101006.72
2023-07-03T16:59:31.423Z,100997.59
2023-07-03T17:01:58.693Z,100991.59
2023-07-03T17:04:26.072Z,101005.94
2023-07-03T17:06:53.270Z,101008.34
2023-07-03T17:09:21.681Z,101001.16
2023-07-03T17:11:49.116Z,100998.78
2023-07-03T17:14:18.081Z,101005.53
2023-07-03T17:16:45.744Z,101003.56
2023-07-03T17:19:13.001Z,100998.00
2023-07-03T17:21:40.196Z,101001.16
2023-07-03T17:24:08.039Z,101014.66
2023-07-03T17:26:35.281Z,101000.34
2023-07-03T17:29:04.918Z,100999.56
2023-07-03T17:31:32.422Z,101002.34
2023-07-03T17:33:59.898Z,101005.94
2023-07-03T17:36:27.157Z,101011.88
2023-07-03T17:38:54.403Z,101014.66
2023-07-03T17:41:22.117Z,101017.44
2023-07-03T17:43:49.167Z,101021.06
2023-07-03T17:46:19.643Z,101013.09
2023-07-03T17:48:47.337Z,101011.91
2023-07-03T17:51:15.218Z,101010.31
2023-07-03T17:53:42.889Z,101008.72
2023-07-03T17:56:10.134Z,101009.53
2023-07-03T17:58:37.269Z,101018.66
2023-07-03T18:01:10.922Z,101014.31
2023-07-03T18:03:39.258Z,101009.94
2023-07-03T18:06:09.161Z,101011.13
2023-07-03T18:08:36.943Z,101021.06
2023-07-03T18:11:04.471Z,101005.94
2023-07-03T18:13:32.090Z,101017.09
2023-07-03T18:15:59.704Z,101016.72
2023-07-03T18:18:27.160Z,101017.09
2023-07-03T18:20:54.316Z,101025.06
2023-07-03T18:23:21.580Z,101021.88
2023-07-03T18:25:48.836Z,101032.59
2023-07-03T18:28:16.096Z,101033.38
2023-07-03T18:30:43.287Z,101029.00
2023-07-03T18:33:10.430Z,101031.81
2023-07-03T18:35:40.751Z,101030.22
2023-07-03T18:38:07.962Z,101035.00
2023-07-03T18:40:35.073Z,101037.00
2023-07-03T18:43:02.590Z,101030.22
2023-07-03T18:45:29.630Z,101036.16
2023-07-03T18:47:57.835Z,101042.16
2023-07-03T18:50:24.893Z,101038.16
2023-07-03T18:52:52.095Z,101039.34
2023-07-03T18:55:25.082Z,101032.16
2023-07-03T18:57:52.163Z,101043.31
2023-07-03T19:00:19.348Z,101047.28
2023-07-03T19:02:46.717Z,101052.06
2023-07-03T19:05:14.498Z,101052.44
2023-07-03T19:07:41.702Z,101054.41
2023-07-03T19:10:17.868Z,101061.19
2023-07-03T19:12:47.008Z,101066.72
2023-07-03T19:15:14.522Z,101071.47
2023-07-03T19:17:41.877Z,101070.69
2023-07-03T19:20:11.545Z,101060.31
2023-07-03T19:22:39.235Z,101061.50
2023-07-03T19:25:07.709Z,101058.72
2023-07-03T19:27:35.241Z,101067.84
2023-07-03T19:30:02.596Z,101078.56
2023-07-03T19:32:30.032Z,101075.75
2023-07-03T19:34:57.570Z,101085.00
2023-07-03T19:37:25.643Z,101091.69
2023-07-03T19:39:53.102Z,101080.16
2023-07-03T19:42:20.258Z,101081.72
2023-07-03T19:44:47.725Z,101088.50
2023-07-03T19:47:15.122Z,101094.84
2023-07-03T19:49:42.700Z,101098.78
2023-07-03T19:52:12.079Z,101090.41
2023-07-03T19:54:39.589Z,101097.16
2023-07-03T19:57:07.105Z,101098.72
2023-07-03T19:59:35.058Z,101093.53
2023-07-03T20:02:03.259Z,101094.72
2023-07-03T20:04:31.647Z,101099.91
2023-07-03T20:07:00.755Z,101089.94
2023-07-03T20:09:29.126Z,101089.13
2023-07-03T20:11:56.659Z,101096.28
2023-07-03T20:14:24.156Z,101091.91
2023-07-03T20:16:51.687Z,101090.31
2023-07-03T20:19:20.624Z,101080.34
2023-07-03T20:21:49.124Z,101095.88
2023-07-03T20:24:16.503Z,101089.09
2023-07-03T20:26:43.948Z,101084.31
2023-07-03T20:29:11.392Z,101087.09
2023-07-03T20:31:38.726Z,101092.66
2023-07-03T20:34:05.936Z,101095.44
2023-07-03T20:36:35.393Z,101089.06
2023-07-03T20:39:06.086Z,101097.84
2023-07-03T20:41:33.437Z,101101.81
2023-07-03T20:44:06.209Z,101108.16
2023-07-03T20:46:33.447Z,101102.59
2023-07-03T20:49:01.284Z,101109.75
2023-07-03T20:51:33.761Z,101100.19
2023-07-03T20:54:04.466Z,101102.97
2023-07-03T20:56:38.217Z,101104.97
2023-07-03T20:59:07.241Z,101108.56
2023-07-03T21:01:37.129Z,101101.44
2023-07-03T21:04:07.344Z,101094.66
2023-07-03T21:06:37.173Z,101091.84
2023-07-03T21:09:05.425Z,101095.00
2023-07-03T21:11:34.929Z,101098.63
2023-07-03T21:14:05.807Z,101097.41
2023-07-03T21:16:34.861Z,101089.03
2023-07-03T21:19:02.839Z,101089.81
2023-07-03T21:21:32.685Z,101095.38
2023-07-03T21:24:02.492Z,101093.38
2023-07-03T21:26:30.925Z,101093.78
2023-07-03T21:28:58.516Z,101084.59
2023-07-03T21:31:31.249Z,101088.16
2023-07-03T21:33:58.600Z,101088.56
2023-07-03T21:36:29.512Z,101083.78
2023-07-03T21:38:58.637Z,101088.94
2023-07-03T21:41:31.097Z,101088.94
2023-07-03T21:44:00.479Z,101091.69
2023-07-03T21:46:29.712Z,101088.13
2023-07-03T21:48:57.381Z,101087.69
2023-07-03T21:51:27.422Z,101083.34
2023-07-03T21:53:57.602Z,101085.00
2023-07-03T21:56:31.359Z,101086.56
2023-07-03T21:59:04.425Z,101082.19
2023-07-03T22:01:38.724Z,101092.94
2023-07-03T22:04:07.754Z,101087.38
2023-07-03T22:06:35.224Z,101096.13
2023-07-03T22:09:02.468Z,101104.84
2023-07-03T22:11:30.662Z,101094.50
2023-07-03T22:13:58.343Z,101097.69
2023-07-03T22:16:26.365Z,101097.69
2023-07-03T22:18:53.877Z,101094.91
2023-07-03T22:21:22.098Z,101088.56
2023-07-03T22:23:50.876Z,101090.94
2023-07-03T22:26:19.339Z,101090.56
2023-07-03T22:28:47.131Z,101100.91
2023-07-03T22:31:14.481Z,101090.19
2023-07-03T22:33:42.992Z,101095.78
2023-07-03T22:36:11.311Z,101096.59
2023-07-03T22:38:38.534Z,101095.38
2023-07-03T22:41:07.952Z,101096.56
2023-07-03T22:43:35.105Z,101102.94
2023-07-03T22:46:04.348Z,101087.38
2023-07-03T22:48:33.325Z,101087.78
2023-07-03T22:51:02.687Z,101084.56
2023-07-03T22:53:30.253Z,101090.16
2023-07-03T22:55:57.508Z,101081.41
2023-07-03T22:58:24.629Z,101080.19
2023-07-03T23:00:51.873Z,101080.97
2023-07-03T23:03:19.072Z,101072.97
2023-07-03T23:05:53.075Z,101075.41
2023-07-03T23:08:25.430Z,101064.63
2023-07-03T23:10:56.352Z,101068.59
2023-07-03T23:13:25.029Z,101070.94
2023-07-03T23:16:06.836Z,101072.91
2023-07-03T23:18:38.625Z,101057.03
2023-07-03T23:21:10.841Z,101052.22
2023-07-03T23:23:38.891Z,101051.84
2023-07-03T23:26:12.351Z,101053.44
2023-07-03T23:28:43.265Z,101056.22
2023-07-03T23:31:16.232Z,101054.63
2023-07-03T23:33:49.554Z,101052.22
2023-07-03T23:36:21.686Z,101059.78
2023-07-03T23:38:49.781Z,101056.59
2023-07-03T23:41:17.118Z,101052.22
2023-07-03T23:43:44.516Z,101054.63
2023-07-03T23:46:15.388Z,101056.22
2023-07-03T23:48:42.603Z,101056.22
2023-07-03T23:51:11.319Z,101053.81
2023-07-03T23:53:41.503Z,101049.44
2023-07-03T23:56:17.221Z,101045.47
2023-07-03T23:58:46.855Z,101046.66
